Time;durP1;ratioP1;P1;durP2;ratioP2;P2;SDS_P1;SDS_P2;PMS_P1;PMS_P2;Temp;Humidity;BMP_temperature;BMP_pressure;BME280_temperature;BME280_humidity;BME280_pressure;Samples;Min_cycle;Max_cycle;Signal;HPM_P1;HPM_P2
2022/02/04 00:01:48;;;;;;;29.83;15.90;;;10.20;96.70;;;;;;5001459;28;20046;-78
2022/02/04 00:07:40;;;;;;;31.63;14.38;;;10.30;96.70;;;;;;4998865;28;20052;-78
2022/02/04 00:24:08;;;;;;;23.58;13.13;;;10.30;96.70;;;;;;4904863;29;19927;-79
2022/02/04 00:26:44;;;;;;;24.30;12.82;;;10.30;96.70;;;;;;4923112;29;20076;-79
2022/02/04 00:29:20;;;;;;;20.67;12.00;;;10.30;96.70;;;;;;4943631;28;20093;-78
2022/02/04 00:31:53;;;;;;;24.40;13.02;;;10.30;96.70;;;;;;4985139;28;20042;-79
2022/02/04 00:34:24;;;;;;;25.00;12.85;;;10.30;96.70;;;;;;4987361;28;20123;-79
2022/02/04 00:39:29;;;;;;;18.80;11.00;;;10.30;96.70;;;;;;4980663;28;20139;-79
2022/02/04 00:42:05;;;;;;;21.13;12.57;;;10.30;96.70;;;;;;4988003;28;20370;-79
2022/02/04 00:44:37;;;;;;;22.80;11.65;;;10.30;96.70;;;;;;4985100;28;20154;-79
2022/02/04 00:47:28;;;;;;;18.38;10.57;;;10.30;96.70;;;;;;5002168;28;20048;-78
2022/02/04 00:50:06;;;;;;;21.30;11.18;;;10.30;96.70;;;;;;4982515;28;20150;-78
2022/02/04 00:52:45;;;;;;;16.63;10.30;;;10.30;96.70;;;;;;4982262;28;20150;-79
2022/02/04 01:06:29;;;;;;;18.65;11.45;;;10.30;96.70;;;;;;4998210;28;20035;-79
2022/02/04 01:25:55;;;;;;;20.10;10.20;;;10.40;96.70;;;;;;5005106;28;20046;-79
2022/02/04 01:28:26;;;;;;;14.68;9.07;;;10.40;96.70;;;;;;4987878;28;20136;-79
2022/02/04 01:30:56;;;;;;;15.35;9.43;;;10.40;96.70;;;;;;4984324;28;20045;-79
2022/02/04 01:33:27;;;;;;;16.20;9.13;;;10.40;96.70;;;;;;5001390;28;20281;-78
2022/02/04 01:35:56;;;;;;;16.23;9.80;;;10.40;96.70;;;;;;5001712;28;20050;-79
2022/02/04 01:38:27;;;;;;;17.10;8.80;;;10.40;96.70;;;;;;5006369;28;20042;-79
2022/02/04 01:40:56;;;;;;;17.85;9.77;;;10.30;96.70;;;;;;4994638;28;20046;-79
2022/02/04 01:43:26;;;;;;;18.95;10.00;;;10.20;96.70;;;;;;5006826;28;20045;-82
2022/02/04 01:45:57;;;;;;;17.33;9.38;;;10.20;96.70;;;;;;4990751;28;20046;-81
2022/02/04 01:48:30;;;;;;;17.05;9.50;;;10.30;96.70;;;;;;5005140;28;20076;-79
2022/02/04 01:50:59;;;;;;;16.67;9.75;;;10.30;96.70;;;;;;5001820;28;20050;-79
2022/02/04 01:53:28;;;;;;;16.13;9.55;;;10.40;96.70;;;;;;4988586;28;20052;-79
2022/02/04 01:55:58;;;;;;;19.50;9.88;;;10.30;96.70;;;;;;5004397;28;20046;-79
2022/02/04 01:58:27;;;;;;;17.25;9.02;;;10.30;96.70;;;;;;5004456;28;20099;-79
2022/02/04 02:00:56;;;;;;;17.00;9.40;;;10.30;96.70;;;;;;4985619;28;20034;-79
2022/02/04 02:03:25;;;;;;;19.55;9.38;;;10.20;96.70;;;;;;4986948;28;20457;-79
2022/02/04 02:06:00;;;;;;;16.77;9.45;;;10.20;96.70;;;;;;4976388;28;20046;-79
2022/02/04 02:08:29;;;;;;;14.52;8.23;;;10.20;96.70;;;;;;5005522;28;20123;-79
2022/02/04 02:10:57;;;;;;;15.07;8.57;;;10.30;96.70;;;;;;4985044;28;20134;-79
2022/02/04 02:13:36;;;;;;;14.75;8.93;;;10.30;96.70;;;;;;4990258;28;20140;-79
2022/02/04 02:46:18;;;;;;;17.80;9.25;;;10.40;96.70;;;;;;5007319;28;20091;-79
2022/02/04 02:51:49;;;;;;;14.50;8.23;;;10.50;96.70;;;;;;5005408;28;20446;-79
2022/02/04 02:57:09;;;;;;;13.85;8.98;;;10.30;96.70;;;;;;5002986;28;20107;-78
2022/02/04 03:02:09;;;;;;;14.50;7.93;;;10.20;96.70;;;;;;5004000;28;20081;-79
2022/02/04 03:04:38;;;;;;;13.98;7.80;;;10.30;96.70;;;;;;4987937;28;20053;-79
2022/02/04 03:07:06;;;;;;;12.77;7.30;;;10.30;96.70;;;;;;5002990;28;20070;-79
2022/02/04 03:09:36;;;;;;;13.90;7.93;;;10.30;96.70;;;;;;4992472;28;20042;-79
2022/02/04 03:12:06;;;;;;;13.65;6.63;;;10.30;96.70;;;;;;5008769;28;20084;-79
2022/02/04 03:14:35;;;;;;;13.57;7.53;;;10.30;96.70;;;;;;4988814;28;20053;-79
2022/02/04 03:17:07;;;;;;;11.70;6.80;;;10.30;96.70;;;;;;4971015;28;20554;-78
2022/02/04 03:19:36;;;;;;;13.38;6.32;;;10.40;96.70;;;;;;4990553;28;20488;-79
2022/02/04 03:22:10;;;;;;;12.02;6.43;;;10.40;96.70;;;;;;5002489;28;20052;-79
2022/02/04 03:24:43;;;;;;;9.48;6.35;;;10.40;96.70;;;;;;5005730;28;20050;-79
2022/02/04 03:27:13;;;;;;;12.20;7.22;;;10.30;96.70;;;;;;4993515;28;20057;-79
2022/02/04 03:30:00;;;;;;;13.15;7.38;;;10.20;96.70;;;;;;5003133;28;20050;-78
2022/02/04 03:32:29;;;;;;;10.70;6.35;;;10.20;96.70;;;;;;4988394;28;20053;-79
2022/02/04 03:34:57;;;;;;;11.77;7.20;;;10.30;96.70;;;;;;5005988;28;20049;-79
2022/02/04 03:37:26;;;;;;;13.20;7.22;;;10.30;96.70;;;;;;4983546;28;20046;-78
2022/02/04 03:39:56;;;;;;;11.88;6.40;;;10.40;96.70;;;;;;4969423;28;20050;-79
2022/02/04 03:42:24;;;;;;;10.70;6.40;;;10.40;96.70;;;;;;4986127;28;20054;-79
2022/02/04 03:44:53;;;;;;;12.07;5.55;;;10.40;96.70;;;;;;4984934;28;20305;-79
2022/02/04 03:47:22;;;;;;;8.75;5.60;;;10.40;96.70;;;;;;4979932;28;20384;-78
2022/02/04 03:49:50;;;;;;;8.57;5.93;;;10.40;96.70;;;;;;4983915;28;20046;-79
2022/02/04 03:52:20;;;;;;;11.70;5.75;;;10.40;96.70;;;;;;4980998;28;20571;-78
2022/02/04 03:54:48;;;;;;;10.77;6.10;;;10.50;96.70;;;;;;5001377;28;20196;-79
2022/02/04 03:57:19;;;;;;;10.70;5.88;;;10.50;96.70;;;;;;5000362;28;20054;-78
2022/02/04 03:59:47;;;;;;;13.68;6.53;;;10.50;96.70;;;;;;4983674;28;20049;-79
2022/02/04 04:02:15;;;;;;;13.18;7.55;;;10.50;96.70;;;;;;4979916;28;20587;-79
2022/02/04 04:04:44;;;;;;;13.27;6.53;;;10.40;96.70;;;;;;4997003;28;20042;-79
2022/02/04 04:07:13;;;;;;;11.02;6.88;;;10.40;96.70;;;;;;4968703;28;20172;-79
2022/02/04 04:09:48;;;;;;;18.75;7.85;;;10.50;96.70;;;;;;4985292;28;20050;-78
2022/02/04 04:12:19;;;;;;;11.55;7.13;;;10.50;96.70;;;;;;4987401;28;20641;-79
2022/02/04 04:14:52;;;;;;;22.73;9.52;;;10.50;96.70;;;;;;4984024;28;20053;-79
2022/02/04 04:17:21;;;;;;;11.10;7.15;;;10.50;96.70;;;;;;4984309;28;20122;-78
2022/02/04 04:19:49;;;;;;;14.68;7.13;;;10.50;96.70;;;;;;4981492;28;20070;-78
2022/02/04 04:22:17;;;;;;;11.13;7.13;;;10.50;96.70;;;;;;4982691;28;20046;-79
2022/02/04 04:24:46;;;;;;;12.25;6.22;;;10.50;96.70;;;;;;4982807;28;20457;-78
2022/02/04 04:27:14;;;;;;;11.38;6.22;;;10.50;96.70;;;;;;4984478;28;20460;-78
2022/02/04 04:29:45;;;;;;;13.63;6.57;;;10.50;96.70;;;;;;4980704;28;20042;-78
2022/02/04 04:32:13;;;;;;;13.63;6.72;;;10.50;96.70;;;;;;4997876;28;20574;-79
2022/02/04 04:34:42;;;;;;;10.43;6.25;;;10.50;96.70;;;;;;4978635;28;20097;-78
2022/02/04 04:37:10;;;;;;;10.10;6.20;;;10.60;96.70;;;;;;4996580;28;20041;-78
2022/02/04 04:39:55;;;;;;;11.63;6.65;;;10.60;96.70;;;;;;4987829;28;20296;-79
2022/02/04 04:42:41;;;;;;;12.40;6.70;;;10.60;96.70;;;;;;4990557;28;20111;-78
2022/02/04 05:29:12;;;;;;;9.13;6.60;;;10.50;96.70;;;;;;5001272;28;20048;-79
2022/02/04 05:31:41;;;;;;;11.18;8.30;;;10.60;96.70;;;;;;4988081;28;20108;-78
2022/02/04 05:34:14;;;;;;;14.93;8.48;;;10.50;96.70;;;;;;5002792;28;20362;-79
2022/02/04 05:36:46;;;;;;;14.77;8.70;;;10.50;96.70;;;;;;4985178;28;20085;-78
2022/02/04 05:39:21;;;;;;;12.15;8.25;;;10.50;96.70;;;;;;5000417;28;20132;-79
2022/02/04 05:41:50;;;;;;;14.80;9.10;;;10.40;96.70;;;;;;5004005;28;20048;-79
2022/02/04 05:44:18;;;;;;;15.65;9.50;;;10.40;96.70;;;;;;5001783;28;20053;-79
2022/02/04 05:46:54;;;;;;;16.20;10.38;;;10.40;96.70;;;;;;4987126;28;20132;-79
2022/02/04 05:49:27;;;;;;;15.25;9.32;;;10.40;96.70;;;;;;5002067;28;20048;-79
2022/02/04 05:52:11;;;;;;;15.27;8.77;;;10.40;96.70;;;;;;4986887;28;20563;-79
2022/02/04 05:55:01;;;;;;;18.88;8.50;;;10.40;96.70;;;;;;4989008;28;20112;-79
2022/02/04 05:57:46;;;;;;;14.68;8.32;;;10.50;96.70;;;;;;5010014;28;20045;-78
2022/02/04 06:00:42;;;;;;;11.85;8.40;;;10.50;96.70;;;;;;4986137;28;20084;-78
2022/02/04 06:03:53;;;;;;;12.82;7.57;;;10.50;96.70;;;;;;5006187;28;20056;-78
2022/02/04 06:11:16;;;;;;;11.98;7.85;;;10.50;96.70;;;;;;5017840;28;20040;-79
2022/02/04 06:22:24;;;;;;;12.82;7.13;;;10.50;96.70;;;;;;5006125;28;20037;-79
2022/02/04 06:24:54;;;;;;;10.18;6.70;;;10.50;96.70;;;;;;5008631;28;20045;-79
2022/02/04 06:27:24;;;;;;;12.05;8.02;;;10.50;96.70;;;;;;4990335;28;20577;-78
2022/02/04 06:29:54;;;;;;;10.95;7.18;;;10.60;96.70;;;;;;4984485;28;20058;-79
2022/02/04 06:32:23;;;;;;;12.63;7.82;;;10.50;96.70;;;;;;4987333;28;20480;-79
2022/02/04 06:34:51;;;;;;;13.23;6.43;;;10.50;96.70;;;;;;5004199;28;20060;-79
2022/02/04 06:37:21;;;;;;;9.32;7.32;;;10.50;96.70;;;;;;5000495;28;20069;-79
2022/02/04 06:39:50;;;;;;;9.63;7.18;;;10.40;96.70;;;;;;5007561;28;20038;-79
2022/02/04 06:42:21;;;;;;;11.18;7.43;;;10.40;96.70;;;;;;4991889;28;20046;-79
2022/02/04 06:44:50;;;;;;;11.27;7.43;;;10.40;96.70;;;;;;4984922;28;20045;-79
2022/02/04 06:47:18;;;;;;;10.30;7.32;;;10.40;96.70;;;;;;5003801;28;20042;-79
2022/02/04 06:49:47;;;;;;;11.20;6.50;;;10.40;96.70;;;;;;4992733;28;20031;-79
2022/02/04 06:52:16;;;;;;;10.00;6.40;;;10.50;96.70;;;;;;5010068;28;20399;-79
2022/02/04 06:54:45;;;;;;;9.48;6.03;;;10.50;96.70;;;;;;4990026;28;20048;-79
2022/02/04 06:57:14;;;;;;;10.73;6.60;;;10.50;96.70;;;;;;4988829;28;20050;-79
2022/02/04 06:59:44;;;;;;;10.73;5.90;;;10.50;96.70;;;;;;4998533;28;20049;-79
2022/02/04 07:02:13;;;;;;;8.80;5.78;;;10.50;96.70;;;;;;5007088;28;20037;-79
2022/02/04 07:04:42;;;;;;;8.95;5.63;;;10.60;96.70;;;;;;4998048;28;20052;-79
2022/02/04 07:07:12;;;;;;;12.55;5.65;;;10.60;96.70;;;;;;4976838;28;20041;-79
2022/02/04 07:09:53;;;;;;;7.85;5.35;;;10.60;96.70;;;;;;4984919;28;20103;-79
2022/02/04 07:12:30;;;;;;;10.48;5.68;;;10.60;96.70;;;;;;4976830;28;20053;-79
2022/02/04 07:17:38;;;;;;;12.75;6.88;;;10.60;96.70;;;;;;5004649;28;20044;-79
2022/02/04 07:20:06;;;;;;;11.30;6.10;;;10.60;96.70;;;;;;5005103;28;20317;-79
2022/02/04 07:22:35;;;;;;;18.92;6.93;;;10.70;96.70;;;;;;4995002;28;20107;-79
2022/02/04 07:25:05;;;;;;;17.63;6.85;;;10.70;96.70;;;;;;5003213;28;20290;-79
2022/02/04 07:27:37;;;;;;;11.55;6.65;;;10.70;96.70;;;;;;4986189;28;20053;-78
2022/02/04 07:30:27;;;;;;;10.95;6.60;;;10.70;96.70;;;;;;4985070;28;20053;-79
2022/02/04 07:33:18;;;;;;;10.18;7.15;;;10.70;96.70;;;;;;4984893;28;20612;-79
2022/02/04 07:41:05;;;;;;;14.73;6.63;;;10.80;96.70;;;;;;4987455;28;20037;-77
2022/02/04 07:43:35;;;;;;;11.85;6.82;;;10.90;96.70;;;;;;5007881;28;20068;-78
2022/02/04 07:46:04;;;;;;;11.68;7.57;;;10.90;96.70;;;;;;4987951;28;20049;-79
2022/02/04 07:48:32;;;;;;;11.75;7.13;;;10.90;96.70;;;;;;4985069;28;20116;-78
2022/02/04 07:51:00;;;;;;;10.77;6.38;;;10.90;96.70;;;;;;4988951;28;20417;-79
2022/02/04 07:53:34;;;;;;;13.32;7.43;;;10.90;96.70;;;;;;5002268;28;20041;-79
2022/02/04 07:56:03;;;;;;;11.63;6.72;;;11.00;96.70;;;;;;4989597;28;20096;-79
2022/02/04 07:58:31;;;;;;;10.75;6.10;;;11.00;96.70;;;;;;4984348;28;20057;-79
2022/02/04 08:01:03;;;;;;;17.55;8.20;;;11.10;96.70;;;;;;5003264;28;20056;-80
2022/02/04 08:03:41;;;;;;;11.13;6.90;;;11.10;96.70;;;;;;4984548;28;20050;-78
2022/02/04 08:06:13;;;;;;;12.68;6.45;;;11.10;96.70;;;;;;5002822;28;20049;-78
2022/02/04 08:08:53;;;;;;;12.68;6.88;;;11.20;96.70;;;;;;4985152;28;20148;-78
2022/02/04 08:11:29;;;;;;;14.02;6.40;;;11.20;96.70;;;;;;4987160;28;20044;-78
2022/02/04 08:22:53;;;;;;;9.80;5.45;;;11.40;96.70;;;;;;4901696;29;20048;-80
2022/02/04 08:28:12;;;;;;;13.88;5.65;;;11.40;96.70;;;;;;5003643;28;20559;-79
2022/02/04 08:52:33;;;;;;;20.08;11.52;;;11.60;96.70;;;;;;4963429;28;20078;-83
2022/02/04 08:55:24;;;;;;;14.50;8.57;;;11.60;96.70;;;;;;4965216;28;20606;-81
2022/02/04 08:58:05;;;;;;;13.38;8.60;;;11.70;96.70;;;;;;4953723;28;20542;-81
2022/02/04 09:00:46;;;;;;;11.77;6.50;;;11.70;96.70;;;;;;4961876;28;20141;-82
2022/02/04 09:03:27;;;;;;;10.02;5.93;;;11.60;96.70;;;;;;4968806;28;20086;-80
2022/02/04 09:06:24;;;;;;;9.63;6.35;;;11.60;96.70;;;;;;4957643;28;20416;-82
2022/02/04 09:08:57;;;;;;;7.55;5.82;;;11.70;96.70;;;;;;4961667;28;20105;-82
2022/02/04 09:11:42;;;;;;;10.38;5.43;;;11.70;96.70;;;;;;4960776;28;20047;-81
2022/02/04 09:18:03;;;;;;;10.30;5.50;;;11.80;96.70;;;;;;4963140;28;20177;-76
2022/02/04 09:22:42;;;;;;;9.63;5.38;;;11.90;96.70;;;;;;4964987;28;20999;-78
2022/02/04 09:25:11;;;;;;;11.45;5.63;;;12.00;96.70;;;;;;4958214;28;20568;-78
2022/02/04 09:27:39;;;;;;;11.07;5.55;;;12.00;96.70;;;;;;4978804;28;20663;-78
2022/02/04 09:30:11;;;;;;;8.43;4.70;;;12.10;96.70;;;;;;5004011;28;20034;-78
2022/02/04 09:32:39;;;;;;;10.30;4.30;;;12.10;96.70;;;;;;5003418;28;20533;-78
2022/02/04 09:35:09;;;;;;;8.48;4.47;;;12.10;96.70;;;;;;4986608;28;20066;-78
2022/02/04 09:37:41;;;;;;;8.40;3.95;;;12.10;96.70;;;;;;4981234;28;20073;-77
2022/02/04 09:40:11;;;;;;;12.05;5.10;;;12.20;96.70;;;;;;4982533;28;20817;-78
2022/02/04 09:42:39;;;;;;;8.85;3.88;;;12.20;96.70;;;;;;5000702;28;20065;-78
2022/02/04 09:45:09;;;;;;;10.65;4.72;;;12.20;96.70;;;;;;4983923;28;20073;-78
2022/02/04 09:47:40;;;;;;;8.25;3.25;;;12.30;96.70;;;;;;4983763;28;20050;-78
2022/02/04 09:50:14;;;;;;;9.60;3.70;;;12.30;96.70;;;;;;4987532;28;20123;-78
2022/02/04 10:07:51;;;;;;;8.30;3.40;;;12.70;96.70;;;;;;4998143;28;20603;-78
2022/02/04 10:15:19;;;;;;;11.27;3.65;;;12.90;96.70;;;;;;4994771;28;20103;-78
2022/02/04 10:18:09;;;;;;;9.13;4.18;;;12.90;96.70;;;;;;4988738;28;20092;-78
2022/02/04 10:20:40;;;;;;;7.40;3.67;;;13.00;96.70;;;;;;4982957;28;20354;-77
2022/02/04 10:23:08;;;;;;;10.27;3.60;;;13.10;96.70;;;;;;4984277;28;20672;-78
2022/02/04 10:25:40;;;;;;;12.18;4.28;;;13.10;96.70;;;;;;4985902;28;20061;-77
2022/02/04 10:28:21;;;;;;;10.00;3.45;;;13.20;96.70;;;;;;4987299;28;20042;-76
2022/02/04 10:31:03;;;;;;;9.02;3.78;;;13.30;96.70;;;;;;4986897;28;20054;-77
2022/02/04 10:33:32;;;;;;;8.88;3.72;;;13.40;96.70;;;;;;4992709;28;20054;-77
2022/02/04 10:36:05;;;;;;;10.68;4.13;;;13.40;96.70;;;;;;4995127;28;20512;-78
2022/02/04 10:38:47;;;;;;;10.48;4.30;;;13.30;96.70;;;;;;4982443;28;20069;-77
2022/02/04 10:41:28;;;;;;;11.25;4.15;;;13.30;96.70;;;;;;4998948;28;20566;-77
2022/02/04 10:44:18;;;;;;;11.13;4.50;;;13.40;96.70;;;;;;4997203;28;20460;-77
2022/02/04 10:46:52;;;;;;;10.40;4.75;;;13.50;96.70;;;;;;4982201;28;20054;-77
2022/02/04 10:49:43;;;;;;;10.25;4.35;;;13.40;96.70;;;;;;4983204;28;20136;-77
2022/02/04 11:00:40;;;;;;;11.43;6.32;;;13.70;96.70;;;;;;5000143;28;20049;-78
2022/02/04 11:03:12;;;;;;;16.45;7.10;;;13.90;96.70;;;;;;4983877;28;20045;-78
2022/02/04 11:08:31;;;;;;;14.50;6.75;;;13.90;96.70;;;;;;4984202;28;20049;-77
2022/02/04 11:48:16;;;;;;;10.25;5.10;;;14.00;96.70;;;;;;4942673;28;20082;-78
2022/02/04 11:51:12;;;;;;;10.07;5.03;;;14.00;96.70;;;;;;4975493;28;20046;-77
2022/02/04 11:54:18;;;;;;;7.65;4.90;;;14.00;96.70;;;;;;4975328;28;20065;-77
2022/02/04 11:56:31;;;;;;;11.90;5.30;;;13.90;96.70;;;;;;4978248;28;20588;-78
2022/02/04 11:59:02;;;;;;;10.75;4.90;;;13.90;96.70;;;;;;4962634;28;20395;-77
2022/02/04 12:01:43;;;;;;;11.60;5.22;;;13.90;96.70;;;;;;4979645;28;20062;-77
2022/02/04 12:04:23;;;;;;;9.13;5.40;;;13.80;96.70;;;;;;4979804;28;20132;-77
2022/02/04 12:06:53;;;;;;;9.18;5.25;;;13.90;96.70;;;;;;4961737;28;20137;-77
2022/02/04 12:09:35;;;;;;;10.50;5.38;;;13.90;96.70;;;;;;4975946;28;20043;-77
2022/02/04 12:12:04;;;;;;;11.25;5.43;;;13.80;96.70;;;;;;4961627;28;20058;-77
2022/02/04 12:14:33;;;;;;;9.63;4.80;;;13.70;96.70;;;;;;4981781;28;20132;-77
2022/02/04 12:17:16;;;;;;;11.18;4.95;;;13.70;96.70;;;;;;4996087;28;20061;-77
2022/02/04 12:19:52;;;;;;;9.85;4.25;;;13.60;96.70;;;;;;4987698;28;20069;-77
2022/02/04 12:22:49;;;;;;;10.38;4.65;;;13.60;96.70;;;;;;5001237;28;20527;-77
2022/02/04 12:26:02;;;;;;;11.80;4.83;;;13.60;96.70;;;;;;5000537;28;20476;-77
2022/02/04 12:28:37;;;;;;;9.38;4.57;;;13.60;96.70;;;;;;4901962;29;20079;-77
2022/02/04 12:31:07;;;;;;;11.38;4.80;;;13.50;96.70;;;;;;4900758;29;20052;-77
2022/02/04 12:33:40;;;;;;;8.15;4.47;;;13.40;96.70;;;;;;4888693;29;20522;-77
2022/02/04 12:36:17;;;;;;;13.57;5.20;;;13.40;96.70;;;;;;4891437;29;20063;-77
2022/02/04 12:38:47;;;;;;;9.10;5.38;;;13.40;96.70;;;;;;4918854;29;20488;-77
2022/02/04 12:41:20;;;;;;;12.60;6.25;;;13.40;96.70;;;;;;4924095;29;20118;-77
2022/02/04 12:43:52;;;;;;;12.63;6.30;;;13.40;96.70;;;;;;4900484;29;20052;-77
2022/02/04 12:46:22;;;;;;;15.40;7.50;;;13.30;96.70;;;;;;4925235;29;20059;-77
2022/02/04 12:49:02;;;;;;;14.30;8.10;;;13.40;96.70;;;;;;4919540;29;20063;-77
2022/02/04 12:51:53;;;;;;;18.88;8.77;;;13.30;96.70;;;;;;4917571;29;20043;-77
2022/02/04 12:54:28;;;;;;;21.92;12.15;;;13.30;96.70;;;;;;4919999;29;20051;-77
2022/02/04 12:57:28;;;;;;;14.23;7.22;;;13.20;96.70;;;;;;4911729;29;20062;-77
2022/02/04 13:08:12;;;;;;;11.80;6.38;;;13.30;96.70;;;;;;4982829;28;20053;-77
2022/02/04 13:10:57;;;;;;;14.05;6.28;;;13.30;96.70;;;;;;4998828;28;20082;-77
2022/02/04 13:13:26;;;;;;;14.18;8.90;;;13.30;96.70;;;;;;4985094;28;20467;-77
2022/02/04 13:15:55;;;;;;;16.35;6.82;;;13.40;96.70;;;;;;5006901;28;20394;-77
2022/02/04 13:18:23;;;;;;;9.82;5.60;;;13.30;96.70;;;;;;5007278;28;20052;-78
2022/02/04 13:20:57;;;;;;;14.23;7.68;;;13.30;96.70;;;;;;4987419;28;20084;-77
2022/02/04 13:23:31;;;;;;;14.13;7.18;;;13.30;96.70;;;;;;4986762;28;20042;-77
2022/02/04 13:26:01;;;;;;;12.00;7.50;;;13.30;96.70;;;;;;4986884;28;20055;-77
2022/02/04 13:28:32;;;;;;;11.23;5.38;;;13.30;96.70;;;;;;5001819;28;20148;-77
2022/02/04 13:31:03;;;;;;;11.35;5.85;;;13.30;96.70;;;;;;4986405;28;20046;-77
2022/02/04 13:33:33;;;;;;;11.43;5.68;;;13.20;96.70;;;;;;4985363;28;20049;-77
2022/02/04 13:36:29;;;;;;;11.95;5.50;;;13.20;96.70;;;;;;5001325;28;20061;-77
2022/02/04 13:44:35;;;;;;;9.80;4.95;;;13.10;96.70;;;;;;5001623;28;20069;-77
2022/02/04 13:47:18;;;;;;;9.65;4.75;;;13.10;96.70;;;;;;4992532;28;20053;-77
2022/02/04 13:50:11;;;;;;;12.68;4.97;;;13.10;96.70;;;;;;4988232;28;20112;-77
2022/02/04 13:58:51;;;;;;;12.23;4.75;;;12.90;96.70;;;;;;5001526;28;20701;-77
2022/02/04 14:03:32;;;;;;;9.30;4.68;;;12.80;96.70;;;;;;4988757;28;20048;-77
2022/02/04 14:09:04;;;;;;;13.82;5.97;;;12.80;96.70;;;;;;4997323;28;20584;-77
2022/02/04 14:11:35;;;;;;;14.38;5.55;;;12.80;96.70;;;;;;4980434;28;20061;-77
2022/02/04 14:14:06;;;;;;;12.95;5.43;;;12.70;96.70;;;;;;4984402;28;20042;-78
2022/02/04 14:16:35;;;;;;;8.13;5.53;;;12.70;96.70;;;;;;4981708;28;20046;-77
2022/02/04 14:19:03;;;;;;;13.25;6.00;;;12.60;96.70;;;;;;4983569;28;20068;-77
2022/02/04 14:21:32;;;;;;;12.40;6.45;;;12.60;96.70;;;;;;4983317;28;20073;-78
2022/02/04 14:24:07;;;;;;;10.65;5.75;;;12.60;96.70;;;;;;4998444;28;20583;-76
2022/02/04 14:26:44;;;;;;;15.67;6.67;;;12.60;96.70;;;;;;4981058;28;20074;-77
2022/02/04 14:53:37;;;;;;;12.55;6.18;;;13.60;96.70;;;;;;4997809;28;20073;-77
2022/02/04 14:58:46;;;;;;;13.30;6.10;;;13.40;96.70;;;;;;4995301;28;20039;-77
2022/02/04 15:04:02;;;;;;;9.88;5.28;;;13.40;96.70;;;;;;5004582;28;20050;-77
2022/02/04 15:06:34;;;;;;;11.05;5.68;;;13.40;96.70;;;;;;4997852;28;20058;-78
2022/02/04 15:09:07;;;;;;;12.80;6.38;;;13.50;96.70;;;;;;4982007;28;20069;-77
2022/02/04 15:11:37;;;;;;;8.70;5.18;;;13.50;96.70;;;;;;5001879;28;20058;-78
2022/02/04 15:14:08;;;;;;;8.48;5.28;;;13.50;96.70;;;;;;4986833;28;20096;-77
2022/02/04 15:16:37;;;;;;;10.38;5.40;;;13.50;96.70;;;;;;4981491;28;20455;-78
2022/02/04 15:19:05;;;;;;;11.65;5.25;;;13.50;96.70;;;;;;4982424;28;20042;-78
2022/02/04 15:21:34;;;;;;;7.45;4.43;;;13.50;96.70;;;;;;4982818;28;20053;-77
2022/02/04 15:24:03;;;;;;;11.70;4.47;;;13.50;96.70;;;;;;4984660;28;20552;-77
2022/02/04 15:26:31;;;;;;;10.88;6.30;;;13.50;96.70;;;;;;4986260;28;20047;-77
2022/02/04 15:29:09;;;;;;;11.00;6.15;;;13.50;96.70;;;;;;4987318;28;20038;-77
2022/02/04 15:31:46;;;;;;;9.88;5.43;;;13.50;96.70;;;;;;4990324;28;20056;-78
2022/02/04 15:34:16;;;;;;;9.07;5.07;;;13.60;96.70;;;;;;4983031;28;20145;-78
2022/02/04 15:36:47;;;;;;;8.18;4.93;;;13.60;96.70;;;;;;5000395;28;20483;-77
2022/02/04 15:39:17;;;;;;;10.00;5.07;;;13.50;96.70;;;;;;4986004;28;20050;-77
2022/02/04 15:41:46;;;;;;;11.20;6.18;;;13.40;96.70;;;;;;4984173;28;20039;-78
2022/02/04 15:47:39;;;;;;;10.93;5.38;;;13.30;96.70;;;;;;4983771;28;20526;-78
2022/02/04 15:57:58;;;;;;;11.80;5.97;;;13.30;96.70;;;;;;4973422;28;20165;-78
2022/02/04 16:01:18;;;;;;;10.85;5.55;;;13.30;96.70;;;;;;4982086;28;20053;-78
2022/02/04 16:06:29;;;;;;;12.50;6.43;;;13.00;96.70;;;;;;4940584;28;20715;-77
2022/02/04 16:08:58;;;;;;;13.65;8.27;;;13.00;96.70;;;;;;4945875;28;20043;-78
2022/02/04 16:11:46;;;;;;;12.98;6.85;;;12.90;96.70;;;;;;4929659;28;20117;-77
2022/02/04 16:14:29;;;;;;;12.40;6.53;;;12.80;96.70;;;;;;4931514;28;20047;-77
2022/02/04 16:19:46;;;;;;;10.85;6.88;;;12.70;96.70;;;;;;4941624;28;20047;-77
2022/02/04 16:30:37;;;;;;;11.90;6.55;;;12.50;96.70;;;;;;4925487;28;20197;-77
2022/02/04 16:33:05;;;;;;;10.80;6.57;;;12.40;96.70;;;;;;4933810;28;20151;-78
2022/02/04 16:35:35;;;;;;;13.63;7.65;;;12.40;96.70;;;;;;4942109;28;20047;-77
2022/02/04 16:38:04;;;;;;;11.98;8.07;;;12.40;96.70;;;;;;4977361;28;20074;-77
2022/02/04 16:40:34;;;;;;;13.25;7.93;;;12.40;96.70;;;;;;4980933;28;20077;-77
2022/02/04 16:43:02;;;;;;;21.23;13.80;;;12.30;96.70;;;;;;4992475;28;20046;-77
2022/02/04 16:45:30;;;;;;;19.15;11.68;;;12.30;96.70;;;;;;4968275;28;20129;-77
2022/02/04 16:47:59;;;;;;;31.38;18.85;;;12.30;96.70;;;;;;4981930;28;20042;-77
2022/02/04 16:50:29;;;;;;;25.52;16.45;;;12.20;96.70;;;;;;4979114;28;20133;-77
2022/02/04 16:52:59;;;;;;;27.90;17.77;;;12.20;96.70;;;;;;4995003;28;20046;-77
2022/02/04 16:55:27;;;;;;;20.15;14.18;;;12.20;96.70;;;;;;4982428;28;20049;-77
2022/02/04 16:57:55;;;;;;;23.80;16.40;;;12.20;96.70;;;;;;4983277;28;20046;-77
2022/02/04 17:00:25;;;;;;;20.13;14.05;;;12.20;96.70;;;;;;4984725;28;20046;-77
2022/02/04 17:03:00;;;;;;;21.15;13.25;;;12.20;96.70;;;;;;4987405;28;20053;-78
2022/02/04 17:05:38;;;;;;;19.95;11.73;;;12.20;96.70;;;;;;4996909;28;20043;-77
2022/02/04 17:08:10;;;;;;;18.17;10.00;;;12.20;96.70;;;;;;4983886;28;20057;-77
2022/02/04 17:10:42;;;;;;;17.75;11.07;;;12.20;96.70;;;;;;4996971;28;20097;-77
2022/02/04 17:13:12;;;;;;;15.43;11.27;;;12.20;96.70;;;;;;4984429;28;20119;-77
2022/02/04 17:15:41;;;;;;;17.50;11.57;;;12.20;96.70;;;;;;4982351;28;20043;-77
2022/02/04 17:18:11;;;;;;;18.02;12.10;;;12.20;96.70;;;;;;4997958;28;20516;-77
2022/02/04 17:20:40;;;;;;;19.83;13.95;;;12.20;96.70;;;;;;4980177;28;20101;-77
2022/02/04 17:23:12;;;;;;;19.52;13.85;;;12.20;96.70;;;;;;4980449;28;20093;-77
2022/02/04 17:25:43;;;;;;;16.35;12.02;;;12.20;96.70;;;;;;4976365;28;20050;-78
2022/02/04 17:28:11;;;;;;;16.95;12.60;;;12.10;96.70;;;;;;4979873;28;20046;-77
2022/02/04 17:30:40;;;;;;;21.98;16.83;;;12.10;96.70;;;;;;4981855;28;20046;-77
2022/02/04 17:33:08;;;;;;;19.73;14.45;;;12.10;96.70;;;;;;4983014;28;20043;-78
2022/02/04 17:35:36;;;;;;;16.88;10.48;;;12.10;96.70;;;;;;4983360;28;20042;-77
2022/02/04 17:38:04;;;;;;;16.83;10.43;;;12.00;96.70;;;;;;5005205;28;20041;-77
2022/02/04 17:40:34;;;;;;;14.13;10.13;;;11.90;96.70;;;;;;5000676;28;20541;-77
2022/02/04 17:43:03;;;;;;;23.05;12.38;;;11.90;96.70;;;;;;5000024;28;20038;-77
2022/02/04 17:45:32;;;;;;;13.50;10.15;;;11.90;96.70;;;;;;5000737;28;20042;-77
2022/02/04 17:48:07;;;;;;;11.73;8.73;;;11.90;96.70;;;;;;5003039;28;20496;-77
2022/02/04 17:50:49;;;;;;;13.05;10.02;;;11.90;96.70;;;;;;5012322;28;20045;-77
2022/02/04 17:53:25;;;;;;;14.77;9.73;;;11.90;96.70;;;;;;5008796;28;20049;-77
2022/02/04 17:56:17;;;;;;;12.88;9.65;;;11.90;96.70;;;;;;4988252;28;20052;-78
2022/02/04 17:59:00;;;;;;;12.63;9.68;;;11.90;96.70;;;;;;5004533;28;20050;-77
2022/02/04 18:07:14;;;;;;;12.27;9.80;;;11.90;96.70;;;;;;4987639;28;20512;-77
2022/02/04 18:09:45;;;;;;;16.27;12.13;;;11.90;96.70;;;;;;4993927;28;20402;-77
2022/02/04 18:12:21;;;;;;;15.82;11.65;;;11.90;96.70;;;;;;5007014;28;20095;-77
2022/02/04 18:14:49;;;;;;;18.47;14.23;;;11.90;96.70;;;;;;4989896;28;20089;-77
2022/02/04 18:17:19;;;;;;;19.48;13.05;;;11.90;96.70;;;;;;4986961;28;20281;-77
2022/02/04 18:19:48;;;;;;;21.40;14.48;;;11.90;96.70;;;;;;5004337;28;20048;-78
2022/02/04 18:22:16;;;;;;;19.35;15.40;;;11.90;96.70;;;;;;5006299;28;20397;-78
2022/02/04 18:24:46;;;;;;;22.30;16.25;;;11.90;96.70;;;;;;4987197;28;20037;-79
2022/02/04 18:27:17;;;;;;;22.00;15.10;;;11.90;96.70;;;;;;5001350;28;20519;-78
2022/02/04 18:29:52;;;;;;;20.42;15.75;;;11.80;96.70;;;;;;4999434;28;20048;-78
2022/02/04 18:32:22;;;;;;;29.02;16.00;;;11.90;96.70;;;;;;4982891;28;20042;-79
2022/02/04 18:34:52;;;;;;;24.00;15.23;;;11.80;96.70;;;;;;4985428;28;20046;-78
2022/02/04 18:37:32;;;;;;;23.10;15.43;;;11.80;96.70;;;;;;5005836;28;20081;-78
2022/02/04 18:40:24;;;;;;;23.73;16.02;;;11.80;96.70;;;;;;5006096;28;20764;-78
2022/02/04 18:45:48;;;;;;;20.13;13.85;;;11.70;96.70;;;;;;5005067;28;20397;-76
2022/02/04 18:48:20;;;;;;;22.88;15.40;;;11.70;96.70;;;;;;5004968;28;20148;-76
2022/02/04 18:58:47;;;;;;;20.88;14.15;;;11.70;96.70;;;;;;5004909;28;20062;-77
2022/02/04 19:01:18;;;;;;;21.88;14.57;;;11.70;96.70;;;;;;5004513;28;20072;-76
2022/02/04 19:03:54;;;;;;;23.63;14.82;;;11.70;96.70;;;;;;5001015;28;20508;-78